G. O. Sars — LMEL — position and weather

sailwx.info

Track history (hours):
 
Tides and Currents Weather Stations Pressure Air Temp Water Temp Dewpoint Dewpoint Depression Visibility Wind Speed Wind Dir Waves Ship Positions

Oceanographic research ship G. O. Sars (Norway)

Detailed information on ship capabilities available from University of Delaware's Ocean Information Center and ARCUS's ALIAS (Arctic Logistics Information and Support) project.

Last reported at 2017-Jun-22 16:19 UTC. Time now 2017-Jun-26 17:07 UTC.
Position N 69°60' E 017°07'.

Type: Other ship. MMSI: 257105000.

Date/timePositionNaut miles runAvg speedWind from/ knotsBaromVisibWave heightAir tempDewpointWater temp
2017-Jun-22 16:19N 69°60' E 017°07'310.8
2017-Jun-22 16:00N 69°57' E 017°13'611.0
2017-Jun-22 15:30N 69°52' E 017°22'510.8
2017-Jun-22 15:00N 69°48' E 017°30'1110.6
2017-Jun-22 14:00N 69°39' E 017°47'611.1
2017-Jun-22 13:30N 69°34' E 017°56'510.5
2017-Jun-22 13:00N 69°31' E 018°08'510.7
2017-Jun-22 12:30N 69°31' E 018°24'511.0
2017-Jun-22 12:00N 69°33' E 018°38'611.8
2017-Jun-22 11:30N 69°36' E 018°53'4 7.1
2017-Jun-22 11:00N 69°39' E 018°58'0 0.0
2017-Jun-22 10:30N 69°39' E 018°58'0 0.0
2017-Jun-22 09:59N 69°39' E 018°58'0 0.0
2017-Jun-22 09:30N 69°39' E 018°58'0 0.0
2017-Jun-22 09:00N 69°39' E 018°58'0 0.0
2017-Jun-22 08:30N 69°39' E 018°58'0 0.0
2017-Jun-22 08:00N 69°39' E 018°58'0 0.0
2017-Jun-22 07:30N 69°39' E 018°58'0 0.0
2017-Jun-22 07:00N 69°39' E 018°58'0 0.0
2017-Jun-22 06:30N 69°39' E 018°58'0 0.0
2017-Jun-22 06:00N 69°39' E 018°58'0 0.0
2017-Jun-22 05:30N 69°39' E 018°58'0 0.0
2017-Jun-22 05:00N 69°39' E 018°58'0 0.0
2017-Jun-22 04:30N 69°39' E 018°58'0 0.0
2017-Jun-22 04:00N 69°39' E 018°58'0 0.0
2017-Jun-22 03:30N 69°39' E 018°58'0 0.0
2017-Jun-22 03:00N 69°39' E 018°58'0 0.0
2017-Jun-22 02:29N 69°39' E 018°58'0 0.0
2017-Jun-22 02:00N 69°39' E 018°58'0 0.0
2017-Jun-22 01:30N 69°39' E 018°58'0 0.0
2017-Jun-22 01:00N 69°39' E 018°58'0 0.0
2017-Jun-22 00:30N 69°39' E 018°58'0 0.0
2017-Jun-22 00:00N 69°39' E 018°58'0 0.0
2017-Jun-21 23:30N 69°39' E 018°58'0 0.0
2017-Jun-21 23:00N 69°39' E 018°58'0 0.0
2017-Jun-21 22:30N 69°39' E 018°58'0 0.0
2017-Jun-21 22:00N 69°39' E 018°58'0 0.0
2017-Jun-21 21:30N 69°39' E 018°58'0 0.0
2017-Jun-21 21:00N 69°39' E 018°58'0 0.0
2017-Jun-21 20:30N 69°39' E 018°58'0 0.0
2017-Jun-21 20:00N 69°39' E 018°58'0 0.0
2017-Jun-21 19:30N 69°39' E 018°58'0 0.0
2017-Jun-21 19:00N 69°39' E 018°58'0 0.0
2017-Jun-21 18:30N 69°39' E 018°58'0 0.0
2017-Jun-21 18:00N 69°39' E 018°58'0 0.0
2017-Jun-21 17:30N 69°39' E 018°58'0 0.0
2017-Jun-21 17:00N 69°39' E 018°58'0 0.0
2017-Jun-21 16:30N 69°39' E 018°58'0 0.0
2017-Jun-21 16:00N 69°39' E 018°58'0 0.0
2017-Jun-21 15:30N 69°39' E 018°58'0 0.0
2017-Jun-21 15:00N 69°39' E 018°58'0 0.0
2017-Jun-21 14:30N 69°39' E 018°58'0 0.0
2017-Jun-21 11:38N 69°39' E 018°58'0 0.0
2017-Jun-21 11:00N 69°39' E 018°58'0 0.0
2017-Jun-20 20:46N 69°39' E 018°58'0 0.0
2017-Jun-20 13:27N 69°39' E 018°58'2 2.7
2017-Jun-20 12:38N 69°37' E 018°55'20 8.7
2017-Jun-20 10:18N 69°34' E 017°57'7 9.9
2017-Jun-20 09:34N 69°39' E 017°41'510.7
2017-Jun-20 09:07N 69°38' E 017°28'110.7
2017-Jun-20 09:00N 69°37' E 017°24'3110.8
2017-Jun-20 06:09N 69°24' E 016°04'128 2.7
2017-Jun-18 06:01N 67°47' E 012°17'5 9.7
2017-Jun-18 05:29N 67°44' E 012°28'1 2.3
2017-Jun-18 05:00N 67°44' E 012°30'0 0.0
2017-Jun-18 04:31N 67°44' E 012°30'0 0.0
2017-Jun-18 04:00N 67°44' E 012°30'0 0.1
2017-Jun-18 03:30N 67°44' E 012°30'0 0.0
2017-Jun-18 03:00N 67°44' E 012°30'0 0.0
2017-Jun-18 02:30N 67°44' E 012°30'0 0.0
2017-Jun-18 01:59N 67°44' E 012°30'0 0.0
2017-Jun-18 01:30N 67°44' E 012°30'0 0.0
2017-Jun-18 01:00N 67°44' E 012°30'0 0.3
2017-Jun-18 00:30N 67°44' E 012°30'5 9.9
2017-Jun-18 00:00N 67°39' E 012°24'510.4
2017-Jun-17 23:31N 67°35' E 012°29'5 9.9
2017-Jun-17 23:00N 67°33' E 012°41'510.2
2017-Jun-17 22:30N 67°31' E 012°54'510.3
2017-Jun-17 22:00N 67°30' E 013°07'510.1
2017-Jun-17 21:30N 67°28' E 013°19'510.3
2017-Jun-17 21:00N 67°26' E 013°32'2 4.6
2017-Jun-17 20:30N 67°25' E 013°37'0 0.0
2017-Jun-17 20:00N 67°25' E 013°37'0 0.0
2017-Jun-17 19:30N 67°25' E 013°37'0 0.0
2017-Jun-17 19:00N 67°25' E 013°37'3 6.9
2017-Jun-17 18:31N 67°28' E 013°42'510.1
2017-Jun-17 18:00N 67°33' E 013°49'510.0
2017-Jun-17 17:30N 67°37' E 013°55'5 9.9
2017-Jun-17 17:00N 67°41' E 014°02'5 9.8
2017-Jun-17 16:30N 67°45' E 014°09'5 9.8
2017-Jun-17 16:00N 67°49' E 014°18'5 9.6
2017-Jun-17 15:30N 67°52' E 014°28'5 9.6
2017-Jun-17 15:00N 67°55' E 014°37'5 9.5
2017-Jun-17 14:29N 67°58' E 014°48'8 7.7
2017-Jun-17 13:30N 68°03' E 015°03'510.2
2017-Jun-17 13:00N 68°06' E 015°14'510.6
2017-Jun-17 12:30N 68°10' E 015°25'510.4
2017-Jun-17 12:00N 68°13' E 015°36'3 6.6
2017-Jun-17 11:30N 68°14' E 015°44'0 0.0
2017-Jun-17 11:00N 68°14' E 015°44'0 0.0
2017-Jun-17 10:30N 68°14' E 015°44'0 0.0
2017-Jun-17 10:00N 68°14' E 015°44'0 0.0
2017-Jun-17 09:30N 68°14' E 015°44'0 0.0
2017-Jun-17 09:00N 68°14' E 015°44'0 0.0
2017-Jun-17 08:30N 68°14' E 015°44'0 0.0
2017-Jun-17 08:00N 68°14' E 015°44'0 0.0
2017-Jun-17 07:30N 68°14' E 015°44'3 6.4
2017-Jun-17 07:00N 68°17' E 015°48'510.2
2017-Jun-17 06:30N 68°21' E 015°56'510.6
2017-Jun-17 06:00N 68°26' E 016°03'510.6
2017-Jun-17 05:30N 68°30' E 016°09'4 8.9
2017-Jun-17 05:00N 68°33' E 016°19'4 8.4
2017-Jun-17 04:30N 68°34' E 016°30'4 8.5
2017-Jun-17 04:00N 68°37' E 016°35'5 9.7
2017-Jun-17 03:30N 68°42' E 016°41'510.3
2017-Jun-17 03:00N 68°46' E 016°47'510.2
2017-Jun-17 02:30N 68°51' E 016°55'510.1
2017-Jun-17 02:00N 68°55' E 017°02'510.1
2017-Jun-17 01:30N 68°58' E 017°12'5 9.9
2017-Jun-17 01:00N 69°03' E 017°19'5 9.9
2017-Jun-17 00:30N 69°06' E 017°28'510.2
2017-Jun-17 00:00N 69°08' E 017°42'510.4
2017-Jun-16 23:30N 69°10' E 017°56'3 6.2
2017-Jun-16 23:00N 69°13' E 017°59'4 7.0
2017-Jun-16 22:30N 69°16' E 017°58'5 9.4
2017-Jun-16 22:00N 69°20' E 018°04'5 9.3
2017-Jun-16 21:30N 69°25' E 018°08'5 9.3
2017-Jun-16 21:00N 69°29' E 018°13'510.5
2017-Jun-16 20:30N 69°32' E 018°26'511.0
2017-Jun-16 20:00N 69°33' E 018°41'510.7
2017-Jun-16 19:30N 69°36' E 018°54'5 9.0
2017-Jun-16 19:00N 69°40' E 018°59'0 0.8
2017-Jun-16 18:31N 69°41' E 018°59'0 0.0
2017-Jun-16 18:01N 69°41' E 018°59'0 0.0
2017-Jun-16 17:30N 69°41' E 018°59'0 0.0
2017-Jun-16 17:00N 69°41' E 018°59'0 0.0
2017-Jun-16 16:30N 69°41' E 018°59'0 0.0
2017-Jun-16 16:00N 69°41' E 018°59'0 0.0
2017-Jun-16 15:30N 69°41' E 018°59'0 0.0
2017-Jun-16 15:00N 69°41' E 018°59'0 0.0
2017-Jun-16 14:30N 69°41' E 018°59'0 0.0
2017-Jun-16 13:30N 69°41' E 018°59'0 0.0
2017-Jun-16 13:00N 69°41' E 018°59'0 0.0
2017-Jun-16 12:30N 69°41' E 018°59'0 0.0
2017-Jun-16 12:00N 69°41' E 018°59'0 0.0
2017-Jun-16 11:30N 69°41' E 018°59'0 0.0
2017-Jun-16 11:00N 69°41' E 018°59'0 0.0
2017-Jun-16 10:30N 69°41' E 018°59'0 0.0
2017-Jun-16 10:00N 69°41' E 018°59'0 0.0
2017-Jun-16 09:30N 69°41' E 018°59'0 0.0
2017-Jun-16 09:00N 69°41' E 018°59'0 0.0
2017-Jun-16 08:30N 69°41' E 018°59'0 0.0
2017-Jun-16 08:00N 69°41' E 018°59'0 0.0
2017-Jun-16 07:30N 69°41' E 018°59'0 0.0
2017-Jun-16 07:00N 69°41' E 018°59'0 0.0
2017-Jun-16 06:30N 69°41' E 018°59'0 0.0
2017-Jun-16 06:00N 69°41' E 018°59'0 0.0
2017-Jun-16 05:30N 69°41' E 018°59'0 0.0
2017-Jun-16 05:00N 69°41' E 018°59'0 0.0
2017-Jun-16 04:30N 69°41' E 018°59'0 0.0
2017-Jun-16 04:00N 69°41' E 018°59'0 0.0
2017-Jun-16 03:30N 69°41' E 018°59'0 0.0
2017-Jun-16 03:00N 69°41' E 018°59'0 0.0
2017-Jun-16 02:30N 69°41' E 018°59'0 0.0
2017-Jun-16 02:00N 69°41' E 018°59'0 0.0
2017-Jun-16 01:30N 69°41' E 018°59'0 0.0
2017-Jun-16 01:00N 69°41' E 018°59'0 0.0
2017-Jun-16 00:30N 69°41' E 018°59'0 0.0
2017-Jun-16 00:00N 69°41' E 018°59'0 0.0
2017-Jun-15 23:30N 69°41' E 018°59'0 0.0
2017-Jun-15 23:00N 69°41' E 018°59'0 0.0
2017-Jun-15 22:30N 69°41' E 018°59'0 0.0
2017-Jun-15 22:00N 69°41' E 018°59'0 0.0
2017-Jun-15 21:30N 69°41' E 018°60'0 0.0
2017-Jun-15 21:00N 69°41' E 018°59'0 0.0
2017-Jun-15 20:30N 69°41' E 018°59'0 0.0
2017-Jun-15 20:00N 69°41' E 018°60'0 0.0
2017-Jun-15 19:27N 69°41' E 018°59'0 0.0
2017-Jun-15 19:00N 69°41' E 018°59'0 0.0
2017-Jun-15 18:30N 69°41' E 018°59'0 0.0
2017-Jun-15 18:00N 69°41' E 018°59'0 0.0
2017-Jun-15 17:30N 69°41' E 018°59'0 0.0
2017-Jun-15 17:00N 69°41' E 018°59'0 0.0
2017-Jun-15 16:30N 69°41' E 018°59'0 0.0
2017-Jun-15 16:00N 69°41' E 018°59'0 0.0
2017-Jun-15 15:30N 69°41' E 018°59'0 0.0
2017-Jun-15 15:00N 69°41' E 018°59'0 0.1
2017-Jun-15 14:00N 69°41' E 018°60'0 0.0
2017-Jun-15 13:30N 69°41' E 018°60'0 0.0
2017-Jun-15 12:59N 69°41' E 018°60'0 0.0
2017-Jun-15 12:30N 69°41' E 018°60'0 0.0
2017-Jun-15 12:00N 69°41' E 018°60'0 0.0
2017-Jun-15 11:30N 69°41' E 018°60'0 0.0
2017-Jun-15 11:00N 69°41' E 018°60'0 0.0
2017-Jun-15 10:30N 69°41' E 018°60'0 0.0
2017-Jun-15 10:00N 69°41' E 018°60'0 0.0
2017-Jun-15 09:30N 69°41' E 018°60'0 0.0
2017-Jun-15 09:00N 69°41' E 018°60'0 0.0
2017-Jun-15 08:30N 69°41' E 018°60'0 0.0
2017-Jun-15 08:00N 69°41' E 018°60'0 0.0
2017-Jun-15 07:30N 69°41' E 018°60'0 0.0
2017-Jun-15 07:00N 69°41' E 018°60'0 0.0
2017-Jun-15 06:30N 69°41' E 018°60'0 0.0
2017-Jun-15 06:00N 69°41' E 018°60'0 0.0
2017-Jun-15 05:30N 69°41' E 018°60'0 0.0
2017-Jun-15 05:00N 69°41' E 018°60'0 0.0
2017-Jun-15 04:30N 69°41' E 018°60'0 0.0
2017-Jun-15 04:00N 69°41' E 018°60'0 0.0
2017-Jun-15 03:30N 69°41' E 018°60'0 0.0
2017-Jun-15 03:00N 69°41' E 018°60'0 0.0
2017-Jun-15 02:30N 69°41' E 018°60'0 0.0
2017-Jun-15 02:00N 69°41' E 018°60'0 0.0
2017-Jun-15 01:30N 69°41' E 018°60'0 0.0
2017-Jun-15 01:00N 69°41' E 018°60'0 0.0
2017-Jun-15 00:31N 69°41' E 018°60'0 0.0
2017-Jun-15 00:00N 69°41' E 018°60'0 0.0
2017-Jun-14 23:30N 69°41' E 018°60'0 0.0
2017-Jun-14 23:00N 69°41' E 018°60'0 0.0
2017-Jun-14 22:30N 69°41' E 018°60'0 0.0
2017-Jun-14 22:00N 69°41' E 018°60'0 0.0
2017-Jun-14 21:31N 69°41' E 018°60'0 0.0
2017-Jun-14 21:01N 69°41' E 018°60'0 0.0
2017-Jun-14 20:30N 69°41' E 018°60'0 0.0
2017-Jun-14 20:00N 69°41' E 018°60'0 0.0
2017-Jun-14 19:31N 69°41' E 018°60'0 0.0
2017-Jun-14 19:00N 69°41' E 018°60'0 0.0
2017-Jun-14 18:30N 69°41' E 018°60'0 0.0
2017-Jun-14 18:00N 69°41' E 018°60'0 0.1
2017-Jun-14 17:30N 69°41' E 018°60'0 0.7
2017-Jun-14 17:00N 69°41' E 018°59'0 0.0
2017-Jun-14 16:30N 69°41' E 018°59'0 0.0
2017-Jun-14 16:00N 69°41' E 018°59'0 0.0
2017-Jun-14 15:30N 69°41' E 018°59'0 0.0
2017-Jun-14 15:00N 69°41' E 018°59'0 0.1
2017-Jun-14 14:00N 69°41' E 018°59'2 4.3
2017-Jun-14 13:30N 69°42' E 019°04'0 0.0
2017-Jun-14 13:00N 69°42' E 019°04'0 0.0
2017-Jun-14 12:30N 69°42' E 019°04'0 0.0
2017-Jun-14 12:00N 69°42' E 019°04'0 0.0
2017-Jun-14 11:31N 69°42' E 019°04'0 0.0
2017-Jun-14 11:01N 69°42' E 019°05'0 0.0
2017-Jun-14 10:30N 69°42' E 019°05'0 0.0
2017-Jun-14 10:00N 69°42' E 019°05'0 0.0
2017-Jun-14 09:31N 69°42' E 019°05'0 0.0
2017-Jun-14 09:01N 69°42' E 019°05'2 4.7
2017-Jun-14 08:30N 69°40' E 019°00'1 1.6
2017-Jun-14 08:00N 69°40' E 018°58'0 0.0
2017-Jun-14 07:30N 69°40' E 018°58'0 0.0
2017-Jun-14 07:01N 69°40' E 018°58'0 0.0
2017-Jun-14 06:30N 69°40' E 018°58'2 4.2
2017-Jun-14 06:00N 69°38' E 018°56'510.5
2017-Jun-14 05:30N 69°34' E 018°46'5 9.3
2017-Jun-14 05:00N 69°32' E 018°33'510.7
2017-Jun-14 04:30N 69°31' E 018°18'510.8
2017-Jun-14 04:01N 69°32' E 018°03'611.1
2017-Jun-14 03:30N 69°36' E 017°53'510.8
2017-Jun-14 03:00N 69°40' E 017°42'510.9
2017-Jun-14 02:30N 69°42' E 017°27'511.0
2017-Jun-14 02:00N 69°44' E 017°13'611.4
2017-Jun-14 01:31N 69°46' E 016°58'611.2
2017-Jun-14 01:00N 69°48' E 016°43'510.9
2017-Jun-14 00:30N 69°50' E 016°28'3 0.2
2017-Jun-13 11:09N 69°50' E 016°19'210.5
2017-Jun-13 11:00N 69°49' E 016°23'510.6
2017-Jun-13 10:30N 69°46' E 016°35'510.5
2017-Jun-13 10:00N 69°44' E 016°49'510.8
2017-Jun-13 09:30N 69°43' E 017°04'510.8
2017-Jun-13 09:00N 69°41' E 017°20'611.3
2017-Jun-13 08:30N 69°40' E 017°35'510.8
2017-Jun-13 08:00N 69°38' E 017°49'612.1
2017-Jun-13 07:30N 69°33' E 018°00'611.3
2017-Jun-13 07:00N 69°30' E 018°15'612.0
2017-Jun-13 06:30N 69°32' E 018°31'713.5
2017-Jun-13 06:01N 69°34' E 018°49'611.0
2017-Jun-13 05:30N 69°39' E 018°59'2 3.4
2017-Jun-13 04:58N 69°41' E 018°60'0 0.0
2017-Jun-13 04:28N 69°41' E 018°60'0 0.0
2017-Jun-13 03:58N 69°41' E 018°60'0 0.0
2017-Jun-13 03:28N 69°41' E 018°60'0 0.0
2017-Jun-13 02:58N 69°41' E 018°60'0 0.0
2017-Jun-13 02:28N 69°41' E 018°60'0 0.0
2017-Jun-13 01:58N 69°41' E 018°60'0 0.0
2017-Jun-13 01:28N 69°41' E 018°60'0 0.0
2017-Jun-13 00:58N 69°41' E 018°60'0 0.0
2017-Jun-13 00:28N 69°41' E 018°60'0 0.0
2017-Jun-12 23:58N 69°41' E 018°60'0 0.0
2017-Jun-12 23:28N 69°41' E 018°60'0 0.0
2017-Jun-12 22:58N 69°41' E 018°60'0 0.0
2017-Jun-12 22:28N 69°41' E 018°60'0 0.0
2017-Jun-12 21:58N 69°41' E 018°60'0 0.0
2017-Jun-12 21:28N 69°41' E 018°60'0 0.0
2017-Jun-12 20:58N 69°41' E 018°60'0 0.0
2017-Jun-12 20:28N 69°41' E 018°60'0 0.0
2017-Jun-12 19:58N 69°41' E 018°60'0 0.0
2017-Jun-12 19:31N 69°41' E 018°60'0 0.0
2017-Jun-12 19:01N 69°41' E 018°60'0 0.0
2017-Jun-12 18:31N 69°41' E 018°60'0 0.0
2017-Jun-12 18:00N 69°41' E 018°60'0 0.0
2017-Jun-12 17:30N 69°41' E 018°60'0 0.0
2017-Jun-12 17:00N 69°41' E 018°60'0 0.0
2017-Jun-12 16:30N 69°41' E 018°60'  
Track history (hours):
 
Tides and Currents Weather Stations Pressure Air Temp Water Temp Dewpoint Dewpoint Depression Visibility Wind Speed Wind Dir Waves Ship Positions

Oceanographic research ship G. O. Sars (Norway)

Detailed information on ship capabilities available from University of Delaware's Ocean Information Center and ARCUS's ALIAS (Arctic Logistics Information and Support) project.

Last reported at 2017-Jun-22 16:19 UTC. Time now 2017-Jun-26 17:07 UTC.
Position N 69°60' E 017°07'.

Type: Other ship. MMSI: 257105000.

Date/timePositionNaut miles runAvg speedWind from/ knotsBaromVisibWave heightAir tempDewpointWater temp
2017-Jun-22 16:19N 69°60' E 017°07'310.8
2017-Jun-22 16:00N 69°57' E 017°13'611.0
2017-Jun-22 15:30N 69°52' E 017°22'510.8
2017-Jun-22 15:00N 69°48' E 017°30'1110.6
2017-Jun-22 14:00N 69°39' E 017°47'611.1
2017-Jun-22 13:30N 69°34' E 017°56'510.5
2017-Jun-22 13:00N 69°31' E 018°08'510.7
2017-Jun-22 12:30N 69°31' E 018°24'511.0
2017-Jun-22 12:00N 69°33' E 018°38'611.8
2017-Jun-22 11:30N 69°36' E 018°53'4 7.1
2017-Jun-22 11:00N 69°39' E 018°58'0 0.0
2017-Jun-22 10:30N 69°39' E 018°58'0 0.0
2017-Jun-22 09:59N 69°39' E 018°58'0 0.0
2017-Jun-22 09:30N 69°39' E 018°58'0 0.0
2017-Jun-22 09:00N 69°39' E 018°58'0 0.0
2017-Jun-22 08:30N 69°39' E 018°58'0 0.0
2017-Jun-22 08:00N 69°39' E 018°58'0 0.0
2017-Jun-22 07:30N 69°39' E 018°58'0 0.0
2017-Jun-22 07:00N 69°39' E 018°58'0 0.0
2017-Jun-22 06:30N 69°39' E 018°58'0 0.0
2017-Jun-22 06:00N 69°39' E 018°58'0 0.0
2017-Jun-22 05:30N 69°39' E 018°58'0 0.0
2017-Jun-22 05:00N 69°39' E 018°58'0 0.0
2017-Jun-22 04:30N 69°39' E 018°58'0 0.0
2017-Jun-22 04:00N 69°39' E 018°58'0 0.0
2017-Jun-22 03:30N 69°39' E 018°58'0 0.0
2017-Jun-22 03:00N 69°39' E 018°58'0 0.0
2017-Jun-22 02:29N 69°39' E 018°58'0 0.0
2017-Jun-22 02:00N 69°39' E 018°58'0 0.0
2017-Jun-22 01:30N 69°39' E 018°58'0 0.0
2017-Jun-22 01:00N 69°39' E 018°58'0 0.0
2017-Jun-22 00:30N 69°39' E 018°58'0 0.0
2017-Jun-22 00:00N 69°39' E 018°58'0 0.0
2017-Jun-21 23:30N 69°39' E 018°58'0 0.0
2017-Jun-21 23:00N 69°39' E 018°58'0 0.0
2017-Jun-21 22:30N 69°39' E 018°58'0 0.0
2017-Jun-21 22:00N 69°39' E 018°58'0 0.0
2017-Jun-21 21:30N 69°39' E 018°58'0 0.0
2017-Jun-21 21:00N 69°39' E 018°58'0 0.0
2017-Jun-21 20:30N 69°39' E 018°58'0 0.0
2017-Jun-21 20:00N 69°39' E 018°58'0 0.0
2017-Jun-21 19:30N 69°39' E 018°58'0 0.0
2017-Jun-21 19:00N 69°39' E 018°58'0 0.0
2017-Jun-21 18:30N 69°39' E 018°58'0 0.0
2017-Jun-21 18:00N 69°39' E 018°58'0 0.0
2017-Jun-21 17:30N 69°39' E 018°58'0 0.0
2017-Jun-21 17:00N 69°39' E 018°58'0 0.0
2017-Jun-21 16:30N 69°39' E 018°58'0 0.0
2017-Jun-21 16:00N 69°39' E 018°58'0 0.0
2017-Jun-21 15:30N 69°39' E 018°58'0 0.0
2017-Jun-21 15:00N 69°39' E 018°58'0 0.0
2017-Jun-21 14:30N 69°39' E 018°58'0 0.0
2017-Jun-21 11:38N 69°39' E 018°58'0 0.0
2017-Jun-21 11:00N 69°39' E 018°58'0 0.0
2017-Jun-20 20:46N 69°39' E 018°58'0 0.0
2017-Jun-20 13:27N 69°39' E 018°58'2 2.7
2017-Jun-20 12:38N 69°37' E 018°55'20 8.7
2017-Jun-20 10:18N 69°34' E 017°57'7 9.9
2017-Jun-20 09:34N 69°39' E 017°41'510.7
2017-Jun-20 09:07N 69°38' E 017°28'110.7
2017-Jun-20 09:00N 69°37' E 017°24'3110.8
2017-Jun-20 06:09N 69°24' E 016°04'128 2.7
2017-Jun-18 06:01N 67°47' E 012°17'5 9.7
2017-Jun-18 05:29N 67°44' E 012°28'1 2.3
2017-Jun-18 05:00N 67°44' E 012°30'0 0.0
2017-Jun-18 04:31N 67°44' E 012°30'0 0.0
2017-Jun-18 04:00N 67°44' E 012°30'0 0.1
2017-Jun-18 03:30N 67°44' E 012°30'0 0.0
2017-Jun-18 03:00N 67°44' E 012°30'0 0.0
2017-Jun-18 02:30N 67°44' E 012°30'0 0.0
2017-Jun-18 01:59N 67°44' E 012°30'0 0.0
2017-Jun-18 01:30N 67°44' E 012°30'0 0.0
2017-Jun-18 01:00N 67°44' E 012°30'0 0.3
2017-Jun-18 00:30N 67°44' E 012°30'5 9.9
2017-Jun-18 00:00N 67°39' E 012°24'510.4
2017-Jun-17 23:31N 67°35' E 012°29'5 9.9
2017-Jun-17 23:00N 67°33' E 012°41'510.2
2017-Jun-17 22:30N 67°31' E 012°54'510.3
2017-Jun-17 22:00N 67°30' E 013°07'510.1
2017-Jun-17 21:30N 67°28' E 013°19'510.3
2017-Jun-17 21:00N 67°26' E 013°32'2 4.6
2017-Jun-17 20:30N 67°25' E 013°37'0 0.0
2017-Jun-17 20:00N 67°25' E 013°37'0 0.0
2017-Jun-17 19:30N 67°25' E 013°37'0 0.0
2017-Jun-17 19:00N 67°25' E 013°37'3 6.9
2017-Jun-17 18:31N 67°28' E 013°42'510.1
2017-Jun-17 18:00N 67°33' E 013°49'510.0
2017-Jun-17 17:30N 67°37' E 013°55'5 9.9
2017-Jun-17 17:00N 67°41' E 014°02'5 9.8
2017-Jun-17 16:30N 67°45' E 014°09'5 9.8
2017-Jun-17 16:00N 67°49' E 014°18'5 9.6
2017-Jun-17 15:30N 67°52' E 014°28'5 9.6
2017-Jun-17 15:00N 67°55' E 014°37'5 9.5
2017-Jun-17 14:29N 67°58' E 014°48'8 7.7
2017-Jun-17 13:30N 68°03' E 015°03'510.2
2017-Jun-17 13:00N 68°06' E 015°14'510.6
2017-Jun-17 12:30N 68°10' E 015°25'510.4
2017-Jun-17 12:00N 68°13' E 015°36'3 6.6
2017-Jun-17 11:30N 68°14' E 015°44'0 0.0
2017-Jun-17 11:00N 68°14' E 015°44'0 0.0
2017-Jun-17 10:30N 68°14' E 015°44'0 0.0
2017-Jun-17 10:00N 68°14' E 015°44'0 0.0
2017-Jun-17 09:30N 68°14' E 015°44'0 0.0
2017-Jun-17 09:00N 68°14' E 015°44'0 0.0
2017-Jun-17 08:30N 68°14' E 015°44'0 0.0
2017-Jun-17 08:00N 68°14' E 015°44'0 0.0
2017-Jun-17 07:30N 68°14' E 015°44'3 6.4
2017-Jun-17 07:00N 68°17' E 015°48'510.2
2017-Jun-17 06:30N 68°21' E 015°56'510.6
2017-Jun-17 06:00N 68°26' E 016°03'510.6
2017-Jun-17 05:30N 68°30' E 016°09'4 8.9
2017-Jun-17 05:00N 68°33' E 016°19'4 8.4
2017-Jun-17 04:30N 68°34' E 016°30'4 8.5
2017-Jun-17 04:00N 68°37' E 016°35'5 9.7
2017-Jun-17 03:30N 68°42' E 016°41'510.3
2017-Jun-17 03:00N 68°46' E 016°47'510.2
2017-Jun-17 02:30N 68°51' E 016°55'510.1
2017-Jun-17 02:00N 68°55' E 017°02'510.1
2017-Jun-17 01:30N 68°58' E 017°12'5 9.9
2017-Jun-17 01:00N 69°03' E 017°19'5 9.9
2017-Jun-17 00:30N 69°06' E 017°28'510.2
2017-Jun-17 00:00N 69°08' E 017°42'510.4
2017-Jun-16 23:30N 69°10' E 017°56'3 6.2
2017-Jun-16 23:00N 69°13' E 017°59'4 7.0
2017-Jun-16 22:30N 69°16' E 017°58'5 9.4
2017-Jun-16 22:00N 69°20' E 018°04'5 9.3
2017-Jun-16 21:30N 69°25' E 018°08'5 9.3
2017-Jun-16 21:00N 69°29' E 018°13'510.5
2017-Jun-16 20:30N 69°32' E 018°26'511.0
2017-Jun-16 20:00N 69°33' E 018°41'510.7
2017-Jun-16 19:30N 69°36' E 018°54'5 9.0
2017-Jun-16 19:00N 69°40' E 018°59'0 0.8
2017-Jun-16 18:31N 69°41' E 018°59'0 0.0
2017-Jun-16 18:01N 69°41' E 018°59'0 0.0
2017-Jun-16 17:30N 69°41' E 018°59'0 0.0
2017-Jun-16 17:00N 69°41' E 018°59'0 0.0
2017-Jun-16 16:30N 69°41' E 018°59'0 0.0
2017-Jun-16 16:00N 69°41' E 018°59'0 0.0
2017-Jun-16 15:30N 69°41' E 018°59'0 0.0
2017-Jun-16 15:00N 69°41' E 018°59'0 0.0
2017-Jun-16 14:30N 69°41' E 018°59'0 0.0
2017-Jun-16 13:30N 69°41' E 018°59'0 0.0
2017-Jun-16 13:00N 69°41' E 018°59'0 0.0
2017-Jun-16 12:30N 69°41' E 018°59'0 0.0
2017-Jun-16 12:00N 69°41' E 018°59'0 0.0
2017-Jun-16 11:30N 69°41' E 018°59'0 0.0
2017-Jun-16 11:00N 69°41' E 018°59'0 0.0
2017-Jun-16 10:30N 69°41' E 018°59'0 0.0
2017-Jun-16 10:00N 69°41' E 018°59'0 0.0
2017-Jun-16 09:30N 69°41' E 018°59'0 0.0
2017-Jun-16 09:00N 69°41' E 018°59'0 0.0
2017-Jun-16 08:30N 69°41' E 018°59'0 0.0
2017-Jun-16 08:00N 69°41' E 018°59'0 0.0
2017-Jun-16 07:30N 69°41' E 018°59'0 0.0
2017-Jun-16 07:00N 69°41' E 018°59'0 0.0
2017-Jun-16 06:30N 69°41' E 018°59'0 0.0
2017-Jun-16 06:00N 69°41' E 018°59'0 0.0
2017-Jun-16 05:30N 69°41' E 018°59'0 0.0
2017-Jun-16 05:00N 69°41' E 018°59'0 0.0
2017-Jun-16 04:30N 69°41' E 018°59'0 0.0
2017-Jun-16 04:00N 69°41' E 018°59'0 0.0
2017-Jun-16 03:30N 69°41' E 018°59'0 0.0
2017-Jun-16 03:00N 69°41' E 018°59'0 0.0
2017-Jun-16 02:30N 69°41' E 018°59'0 0.0
2017-Jun-16 02:00N 69°41' E 018°59'0 0.0
2017-Jun-16 01:30N 69°41' E 018°59'0 0.0
2017-Jun-16 01:00N 69°41' E 018°59'0 0.0
2017-Jun-16 00:30N 69°41' E 018°59'0 0.0
2017-Jun-16 00:00N 69°41' E 018°59'0 0.0
2017-Jun-15 23:30N 69°41' E 018°59'0 0.0
2017-Jun-15 23:00N 69°41' E 018°59'0 0.0
2017-Jun-15 22:30N 69°41' E 018°59'0 0.0
2017-Jun-15 22:00N 69°41' E 018°59'0 0.0
2017-Jun-15 21:30N 69°41' E 018°60'0 0.0
2017-Jun-15 21:00N 69°41' E 018°59'0 0.0
2017-Jun-15 20:30N 69°41' E 018°59'0 0.0
2017-Jun-15 20:00N 69°41' E 018°60'0 0.0
2017-Jun-15 19:27N 69°41' E 018°59'0 0.0
2017-Jun-15 19:00N 69°41' E 018°59'0 0.0
2017-Jun-15 18:30N 69°41' E 018°59'0 0.0
2017-Jun-15 18:00N 69°41' E 018°59'0 0.0
2017-Jun-15 17:30N 69°41' E 018°59'0 0.0
2017-Jun-15 17:00N 69°41' E 018°59'0 0.0
2017-Jun-15 16:30N 69°41' E 018°59'0 0.0
2017-Jun-15 16:00N 69°41' E 018°59'0 0.0
2017-Jun-15 15:30N 69°41' E 018°59'0 0.0
2017-Jun-15 15:00N 69°41' E 018°59'0 0.1
2017-Jun-15 14:00N 69°41' E 018°60'0 0.0
2017-Jun-15 13:30N 69°41' E 018°60'0 0.0
2017-Jun-15 12:59N 69°41' E 018°60'0 0.0
2017-Jun-15 12:30N 69°41' E 018°60'0 0.0
2017-Jun-15 12:00N 69°41' E 018°60'0 0.0
2017-Jun-15 11:30N 69°41' E 018°60'0 0.0
2017-Jun-15 11:00N 69°41' E 018°60'0 0.0
2017-Jun-15 10:30N 69°41' E 018°60'0 0.0
2017-Jun-15 10:00N 69°41' E 018°60'0 0.0
2017-Jun-15 09:30N 69°41' E 018°60'0 0.0
2017-Jun-15 09:00N 69°41' E 018°60'0 0.0
2017-Jun-15 08:30N 69°41' E 018°60'0 0.0
2017-Jun-15 08:00N 69°41' E 018°60'0 0.0
2017-Jun-15 07:30N 69°41' E 018°60'0 0.0
2017-Jun-15 07:00N 69°41' E 018°60'0 0.0
2017-Jun-15 06:30N 69°41' E 018°60'0 0.0
2017-Jun-15 06:00N 69°41' E 018°60'0 0.0
2017-Jun-15 05:30N 69°41' E 018°60'0 0.0
2017-Jun-15 05:00N 69°41' E 018°60'0 0.0
2017-Jun-15 04:30N 69°41' E 018°60'0 0.0
2017-Jun-15 04:00N 69°41' E 018°60'0 0.0
2017-Jun-15 03:30N 69°41' E 018°60'0 0.0
2017-Jun-15 03:00N 69°41' E 018°60'0 0.0
2017-Jun-15 02:30N 69°41' E 018°60'0 0.0
2017-Jun-15 02:00N 69°41' E 018°60'0 0.0
2017-Jun-15 01:30N 69°41' E 018°60'0 0.0
2017-Jun-15 01:00N 69°41' E 018°60'0 0.0
2017-Jun-15 00:31N 69°41' E 018°60'0 0.0
2017-Jun-15 00:00N 69°41' E 018°60'0 0.0
2017-Jun-14 23:30N 69°41' E 018°60'0 0.0
2017-Jun-14 23:00N 69°41' E 018°60'0 0.0
2017-Jun-14 22:30N 69°41' E 018°60'0 0.0
2017-Jun-14 22:00N 69°41' E 018°60'0 0.0
2017-Jun-14 21:31N 69°41' E 018°60'0 0.0
2017-Jun-14 21:01N 69°41' E 018°60'0 0.0
2017-Jun-14 20:30N 69°41' E 018°60'0 0.0
2017-Jun-14 20:00N 69°41' E 018°60'0 0.0
2017-Jun-14 19:31N 69°41' E 018°60'0 0.0
2017-Jun-14 19:00N 69°41' E 018°60'0 0.0
2017-Jun-14 18:30N 69°41' E 018°60'0 0.0
2017-Jun-14 18:00N 69°41' E 018°60'0 0.1
2017-Jun-14 17:30N 69°41' E 018°60'0 0.7
2017-Jun-14 17:00N 69°41' E 018°59'0 0.0
2017-Jun-14 16:30N 69°41' E 018°59'0 0.0
2017-Jun-14 16:00N 69°41' E 018°59'0 0.0
2017-Jun-14 15:30N 69°41' E 018°59'0 0.0
2017-Jun-14 15:00N 69°41' E 018°59'0 0.1
2017-Jun-14 14:00N 69°41' E 018°59'2 4.3
2017-Jun-14 13:30N 69°42' E 019°04'0 0.0
2017-Jun-14 13:00N 69°42' E 019°04'0 0.0
2017-Jun-14 12:30N 69°42' E 019°04'0 0.0
2017-Jun-14 12:00N 69°42' E 019°04'0 0.0
2017-Jun-14 11:31N 69°42' E 019°04'0 0.0
2017-Jun-14 11:01N 69°42' E 019°05'0 0.0
2017-Jun-14 10:30N 69°42' E 019°05'0 0.0
2017-Jun-14 10:00N 69°42' E 019°05'0 0.0
2017-Jun-14 09:31N 69°42' E 019°05'0 0.0
2017-Jun-14 09:01N 69°42' E 019°05'2 4.7
2017-Jun-14 08:30N 69°40' E 019°00'1 1.6
2017-Jun-14 08:00N 69°40' E 018°58'0 0.0
2017-Jun-14 07:30N 69°40' E 018°58'0 0.0
2017-Jun-14 07:01N 69°40' E 018°58'0 0.0
2017-Jun-14 06:30N 69°40' E 018°58'2 4.2
2017-Jun-14 06:00N 69°38' E 018°56'510.5
2017-Jun-14 05:30N 69°34' E 018°46'5 9.3
2017-Jun-14 05:00N 69°32' E 018°33'510.7
2017-Jun-14 04:30N 69°31' E 018°18'510.8
2017-Jun-14 04:01N 69°32' E 018°03'611.1
2017-Jun-14 03:30N 69°36' E 017°53'510.8
2017-Jun-14 03:00N 69°40' E 017°42'510.9
2017-Jun-14 02:30N 69°42' E 017°27'511.0
2017-Jun-14 02:00N 69°44' E 017°13'611.4
2017-Jun-14 01:31N 69°46' E 016°58'611.2
2017-Jun-14 01:00N 69°48' E 016°43'510.9
2017-Jun-14 00:30N 69°50' E 016°28'3 0.2
2017-Jun-13 11:09N 69°50' E 016°19'210.5
2017-Jun-13 11:00N 69°49' E 016°23'510.6
2017-Jun-13 10:30N 69°46' E 016°35'510.5
2017-Jun-13 10:00N 69°44' E 016°49'510.8
2017-Jun-13 09:30N 69°43' E 017°04'510.8
2017-Jun-13 09:00N 69°41' E 017°20'611.3
2017-Jun-13 08:30N 69°40' E 017°35'510.8
2017-Jun-13 08:00N 69°38' E 017°49'612.1
2017-Jun-13 07:30N 69°33' E 018°00'611.3
2017-Jun-13 07:00N 69°30' E 018°15'612.0
2017-Jun-13 06:30N 69°32' E 018°31'713.5
2017-Jun-13 06:01N 69°34' E 018°49'611.0
2017-Jun-13 05:30N 69°39' E 018°59'2 3.4
2017-Jun-13 04:58N 69°41' E 018°60'0 0.0
2017-Jun-13 04:28N 69°41' E 018°60'0 0.0
2017-Jun-13 03:58N 69°41' E 018°60'0 0.0
2017-Jun-13 03:28N 69°41' E 018°60'0 0.0
2017-Jun-13 02:58N 69°41' E 018°60'0 0.0
2017-Jun-13 02:28N 69°41' E 018°60'0 0.0
2017-Jun-13 01:58N 69°41' E 018°60'0 0.0
2017-Jun-13 01:28N 69°41' E 018°60'0 0.0
2017-Jun-13 00:58N 69°41' E 018°60'0 0.0
2017-Jun-13 00:28N 69°41' E 018°60'0 0.0
2017-Jun-12 23:58N 69°41' E 018°60'0 0.0
2017-Jun-12 23:28N 69°41' E 018°60'0 0.0
2017-Jun-12 22:58N 69°41' E 018°60'0 0.0
2017-Jun-12 22:28N 69°41' E 018°60'0 0.0
2017-Jun-12 21:58N 69°41' E 018°60'0 0.0
2017-Jun-12 21:28N 69°41' E 018°60'0 0.0
2017-Jun-12 20:58N 69°41' E 018°60'0 0.0
2017-Jun-12 20:28N 69°41' E 018°60'0 0.0
2017-Jun-12 19:58N 69°41' E 018°60'0 0.0
2017-Jun-12 19:31N 69°41' E 018°60'0 0.0
2017-Jun-12 19:01N 69°41' E 018°60'0 0.0
2017-Jun-12 18:31N 69°41' E 018°60'0 0.0
2017-Jun-12 18:00N 69°41' E 018°60'0 0.0
2017-Jun-12 17:30N 69°41' E 018°60'0 0.0
2017-Jun-12 17:00N 69°41' E 018°60'0 0.0
2017-Jun-12 16:30N 69°41' E 018°60'  

Dump ship's entire track history